sensor_id;sensor_type;location;lat;lon;timestamp;pressure;altitude;pressure_sealevel;temperature;humidity
41250;BME280;26984;59.928;30.306;2023-04-20T00:01:54;102860.28;;;8.07;34.38
41250;BME280;26984;59.928;30.306;2023-04-20T00:04:25;102854.88;;;8.26;34.27
41250;BME280;26984;59.928;30.306;2023-04-20T00:06:52;102852.31;;;8.25;34.03
41250;BME280;26984;59.928;30.306;2023-04-20T00:09:21;102857.41;;;8.18;34.48
41250;BME280;26984;59.928;30.306;2023-04-20T00:11:49;102866.91;;;8.22;34.83
41250;BME280;26984;59.928;30.306;2023-04-20T00:14:17;102860.53;;;8.23;36.48
41250;BME280;26984;59.928;30.306;2023-04-20T00:16:44;102860.25;;;8.16;38.33
41250;BME280;26984;59.928;30.306;2023-04-20T00:19:12;102867.22;;;8.09;39.37
41250;BME280;26984;59.928;30.306;2023-04-20T00:21:41;102867.22;;;8.09;41.00
41250;BME280;26984;59.928;30.306;2023-04-20T00:24:08;102865.38;;;8.00;42.67
41250;BME280;26984;59.928;30.306;2023-04-20T00:26:36;102859.63;;;7.85;45.26
41250;BME280;26984;59.928;30.306;2023-04-20T00:29:03;102855.84;;;7.68;47.25
41250;BME280;26984;59.928;30.306;2023-04-20T00:31:31;102858.53;;;7.49;49.53
41250;BME280;26984;59.928;30.306;2023-04-20T00:33:58;102844.41;;;7.28;51.30
41250;BME280;26984;59.928;30.306;2023-04-20T00:36:26;102844.84;;;7.13;53.21
41250;BME280;26984;59.928;30.306;2023-04-20T00:38:56;102841.16;;;6.95;53.55
41250;BME280;26984;59.928;30.306;2023-04-20T00:41:24;102843.81;;;6.85;54.95
41250;BME280;26984;59.928;30.306;2023-04-20T00:43:51;102842.09;;;6.75;55.51
41250;BME280;26984;59.928;30.306;2023-04-20T00:46:20;102839.56;;;6.73;56.28
41250;BME280;26984;59.928;30.306;2023-04-20T00:48:48;102838.00;;;6.70;56.74
41250;BME280;26984;59.928;30.306;2023-04-20T00:51:16;102831.22;;;6.66;57.85
41250;BME280;26984;59.928;30.306;2023-04-20T00:53:44;102830.06;;;6.59;57.94
41250;BME280;26984;59.928;30.306;2023-04-20T00:56:13;102829.75;;;6.53;56.29
41250;BME280;26984;59.928;30.306;2023-04-20T00:58:41;102831.56;;;6.42;56.08
41250;BME280;26984;59.928;30.306;2023-04-20T01:01:09;102836.34;;;6.39;56.21
41250;BME280;26984;59.928;30.306;2023-04-20T01:03:37;102834.81;;;6.46;58.72
41250;BME280;26984;59.928;30.306;2023-04-20T01:06:05;102837.63;;;6.44;59.20
41250;BME280;26984;59.928;30.306;2023-04-20T01:08:33;102832.22;;;6.35;59.82
41250;BME280;26984;59.928;30.306;2023-04-20T01:11:03;102832.81;;;6.38;62.07
41250;BME280;26984;59.928;30.306;2023-04-20T01:13:32;102832.66;;;6.40;63.06
41250;BME280;26984;59.928;30.306;2023-04-20T01:15:59;102824.63;;;6.30;63.21
41250;BME280;26984;59.928;30.306;2023-04-20T01:18:27;102828.31;;;6.39;63.82
41250;BME280;26984;59.928;30.306;2023-04-20T01:20:54;102830.56;;;6.34;63.26
41250;BME280;26984;59.928;30.306;2023-04-20T01:23:23;102829.72;;;6.33;63.69
41250;BME280;26984;59.928;30.306;2023-04-20T01:25:50;102822.81;;;6.40;64.14
41250;BME280;26984;59.928;30.306;2023-04-20T01:28:18;102822.81;;;6.40;63.49
41250;BME280;26984;59.928;30.306;2023-04-20T01:30:45;102817.47;;;6.40;62.65
41250;BME280;26984;59.928;30.306;2023-04-20T01:33:13;102820.16;;;6.40;61.21
41250;BME280;26984;59.928;30.306;2023-04-20T01:35:40;102814.38;;;6.45;60.66
41250;BME280;26984;59.928;30.306;2023-04-20T01:38:08;102817.63;;;6.48;60.49
41250;BME280;26984;59.928;30.306;2023-04-20T01:40:37;102815.53;;;6.52;59.80
41250;BME280;26984;59.928;30.306;2023-04-20T01:43:05;102811.31;;;6.59;58.62
41250;BME280;26984;59.928;30.306;2023-04-20T01:45:32;102812.31;;;6.58;58.07
41250;BME280;26984;59.928;30.306;2023-04-20T01:48:00;102815.56;;;6.62;58.25
41250;BME280;26984;59.928;30.306;2023-04-20T01:50:27;102809.06;;;6.64;59.37
41250;BME280;26984;59.928;30.306;2023-04-20T01:52:55;102814.47;;;6.74;60.45
41250;BME280;26984;59.928;30.306;2023-04-20T01:55:22;102807.72;;;6.80;61.36
41250;BME280;26984;59.928;30.306;2023-04-20T01:57:53;102809.50;;;6.79;61.94
41250;BME280;26984;59.928;30.306;2023-04-20T02:00:20;102811.22;;;6.80;62.31
41250;BME280;26984;59.928;30.306;2023-04-20T02:02:48;102809.13;;;6.84;62.09
41250;BME280;26984;59.928;30.306;2023-04-20T02:05:15;102809.38;;;6.71;63.53
41250;BME280;26984;59.928;30.306;2023-04-20T02:07:42;102809.75;;;6.57;63.92
41250;BME280;26984;59.928;30.306;2023-04-20T02:10:10;102806.47;;;6.43;63.54
41250;BME280;26984;59.928;30.306;2023-04-20T02:12:37;102797.16;;;6.38;64.22
41250;BME280;26984;59.928;30.306;2023-04-20T02:15:07;102800.94;;;6.35;64.84
41250;BME280;26984;59.928;30.306;2023-04-20T02:17:35;102809.41;;;6.31;64.00
41250;BME280;26984;59.928;30.306;2023-04-20T02:20:03;102799.78;;;6.28;64.91
41250;BME280;26984;59.928;30.306;2023-04-20T02:22:32;102798.41;;;6.34;65.51
41250;BME280;26984;59.928;30.306;2023-04-20T02:25:00;102794.91;;;6.33;65.04
41250;BME280;26984;59.928;30.306;2023-04-20T02:27:29;102796.00;;;6.31;66.00
41250;BME280;26984;59.928;30.306;2023-04-20T02:29:57;102794.72;;;6.25;66.30
41250;BME280;26984;59.928;30.306;2023-04-20T02:32:27;102785.09;;;6.22;66.54
41250;BME280;26984;59.928;30.306;2023-04-20T02:34:54;102783.56;;;6.20;67.30
41250;BME280;26984;59.928;30.306;2023-04-20T02:37:25;102787.34;;;6.17;66.52
41250;BME280;26984;59.928;30.306;2023-04-20T02:39:52;102790.72;;;6.10;67.98
41250;BME280;26984;59.928;30.306;2023-04-20T02:42:19;102786.72;;;6.04;69.35
41250;BME280;26984;59.928;30.306;2023-04-20T02:44:48;102780.81;;;6.00;70.69
41250;BME280;26984;59.928;30.306;2023-04-20T02:47:17;102787.78;;;5.92;72.08
41250;BME280;26984;59.928;30.306;2023-04-20T02:49:46;102777.69;;;5.95;74.61
41250;BME280;26984;59.928;30.306;2023-04-20T02:52:14;102778.69;;;5.94;75.92
41250;BME280;26984;59.928;30.306;2023-04-20T02:54:42;102784.59;;;5.98;76.80
41250;BME280;26984;59.928;30.306;2023-04-20T02:57:11;102787.03;;;6.11;75.79
41250;BME280;26984;59.928;30.306;2023-04-20T02:59:39;102785.34;;;6.10;74.62
41250;BME280;26984;59.928;30.306;2023-04-20T03:02:26;102779.75;;;6.13;75.03
41250;BME280;26984;59.928;30.306;2023-04-20T03:04:56;102782.41;;;6.13;75.37
41250;BME280;26984;59.928;30.306;2023-04-20T03:07:24;102783.00;;;6.16;78.16
41250;BME280;26984;59.928;30.306;2023-04-20T03:09:52;102780.44;;;6.15;77.72
41250;BME280;26984;59.928;30.306;2023-04-20T03:12:28;102776.25;;;6.22;78.50
41250;BME280;26984;59.928;30.306;2023-04-20T03:15:03;102772.97;;;6.18;78.28
41250;BME280;26984;59.928;30.306;2023-04-20T03:17:58;102768.66;;;6.27;79.18
41250;BME280;26984;59.928;30.306;2023-04-20T03:20:27;102774.41;;;6.22;78.99
41250;BME280;26984;59.928;30.306;2023-04-20T03:22:54;102774.28;;;6.24;79.26
41250;BME280;26984;59.928;30.306;2023-04-20T03:25:24;102767.56;;;6.30;80.04
41250;BME280;26984;59.928;30.306;2023-04-20T03:27:57;102765.16;;;6.36;80.25
41250;BME280;26984;59.928;30.306;2023-04-20T03:30:25;102768.59;;;6.48;80.13
41250;BME280;26984;59.928;30.306;2023-04-20T03:32:59;102770.13;;;6.51;79.93
41250;BME280;26984;59.928;30.306;2023-04-20T03:35:29;102763.94;;;6.50;79.11
41250;BME280;26984;59.928;30.306;2023-04-20T03:37:56;102760.69;;;6.46;77.56
41250;BME280;26984;59.928;30.306;2023-04-20T03:40:24;102758.56;;;6.50;77.84
41250;BME280;26984;59.928;30.306;2023-04-20T03:42:52;102761.00;;;6.63;77.66
41250;BME280;26984;59.928;30.306;2023-04-20T03:45:21;102754.38;;;6.67;78.98
41250;BME280;26984;59.928;30.306;2023-04-20T03:47:48;102760.31;;;6.70;79.17
41250;BME280;26984;59.928;30.306;2023-04-20T03:50:16;102754.41;;;6.77;77.56
41250;BME280;26984;59.928;30.306;2023-04-20T03:52:44;102756.38;;;6.84;76.21
41250;BME280;26984;59.928;30.306;2023-04-20T03:55:12;102755.25;;;6.96;76.93
41250;BME280;26984;59.928;30.306;2023-04-20T03:57:46;102753.69;;;7.13;77.70
41250;BME280;26984;59.928;30.306;2023-04-20T04:00:13;102757.78;;;7.17;74.00
41250;BME280;26984;59.928;30.306;2023-04-20T04:02:44;102749.75;;;7.27;71.53
41250;BME280;26984;59.928;30.306;2023-04-20T04:05:14;102753.25;;;7.37;71.26
41250;BME280;26984;59.928;30.306;2023-04-20T04:07:41;102746.31;;;7.54;71.65
41250;BME280;26984;59.928;30.306;2023-04-20T04:10:11;102747.00;;;7.66;68.82
41250;BME280;26984;59.928;30.306;2023-04-20T04:12:39;102750.50;;;7.76;65.67
41250;BME280;26984;59.928;30.306;2023-04-20T04:15:07;102745.25;;;7.75;66.05
41250;BME280;26984;59.928;30.306;2023-04-20T04:17:42;102744.38;;;7.84;64.02
41250;BME280;26984;59.928;30.306;2023-04-20T04:20:10;102749.00;;;7.91;62.54
41250;BME280;26984;59.928;30.306;2023-04-20T04:22:39;102742.25;;;7.87;61.31
41250;BME280;26984;59.928;30.306;2023-04-20T04:25:26;102740.41;;;7.88;59.81
41250;BME280;26984;59.928;30.306;2023-04-20T04:27:54;102739.03;;;7.84;58.69
41250;BME280;26984;59.928;30.306;2023-04-20T04:30:22;102748.38;;;7.80;58.19
41250;BME280;26984;59.928;30.306;2023-04-20T04:32:50;102743.56;;;7.74;58.99
41250;BME280;26984;59.928;30.306;2023-04-20T04:35:19;102749.59;;;7.85;58.65
41250;BME280;26984;59.928;30.306;2023-04-20T04:37:47;102745.34;;;7.92;54.32
41250;BME280;26984;59.928;30.306;2023-04-20T04:40:15;102749.19;;;7.90;54.13
41250;BME280;26984;59.928;30.306;2023-04-20T04:42:45;102742.22;;;7.97;54.16
41250;BME280;26984;59.928;30.306;2023-04-20T04:45:13;102745.13;;;8.04;54.77
41250;BME280;26984;59.928;30.306;2023-04-20T04:47:42;102742.44;;;8.04;52.77
41250;BME280;26984;59.928;30.306;2023-04-20T04:50:10;102748.53;;;8.06;53.56
41250;BME280;26984;59.928;30.306;2023-04-20T04:52:38;102741.75;;;8.11;52.46
41250;BME280;26984;59.928;30.306;2023-04-20T04:55:06;102739.06;;;8.11;53.80
41250;BME280;26984;59.928;30.306;2023-04-20T04:57:34;102736.16;;;8.23;53.64
41250;BME280;26984;59.928;30.306;2023-04-20T05:00:05;102744.03;;;8.34;56.66
41250;BME280;26984;59.928;30.306;2023-04-20T05:02:34;102747.81;;;8.41;56.42
41250;BME280;26984;59.928;30.306;2023-04-20T05:05:02;102741.31;;;8.44;56.09
41250;BME280;26984;59.928;30.306;2023-04-20T05:07:29;102735.66;;;8.37;56.14
41250;BME280;26984;59.928;30.306;2023-04-20T05:09:57;102744.00;;;8.44;56.57
41250;BME280;26984;59.928;30.306;2023-04-20T05:12:24;102741.16;;;8.45;56.60
41250;BME280;26984;59.928;30.306;2023-04-20T05:14:51;102738.00;;;8.50;59.10
41250;BME280;26984;59.928;30.306;2023-04-20T05:17:20;102741.22;;;8.53;59.84
41250;BME280;26984;59.928;30.306;2023-04-20T05:19:48;102740.34;;;8.62;59.74
41250;BME280;26984;59.928;30.306;2023-04-20T05:22:16;102734.06;;;8.72;56.48
41250;BME280;26984;59.928;30.306;2023-04-20T05:24:43;102726.66;;;8.74;58.59
41250;BME280;26984;59.928;30.306;2023-04-20T05:27:11;102725.75;;;8.83;58.25
41250;BME280;26984;59.928;30.306;2023-04-20T05:29:38;102714.59;;;8.96;58.26
41250;BME280;26984;59.928;30.306;2023-04-20T05:32:05;102715.09;;;8.91;55.64
41250;BME280;26984;59.928;30.306;2023-04-20T05:34:34;102714.78;;;8.94;57.02
41250;BME280;26984;59.928;30.306;2023-04-20T05:37:02;102716.63;;;8.94;58.03
41250;BME280;26984;59.928;30.306;2023-04-20T05:39:30;102723.06;;;9.01;58.45
41250;BME280;26984;59.928;30.306;2023-04-20T05:41:57;102716.91;;;9.08;57.53
41250;BME280;26984;59.928;30.306;2023-04-20T05:44:25;102719.97;;;9.14;58.86
41250;BME280;26984;59.928;30.306;2023-04-20T05:46:52;102718.66;;;9.18;57.14
41250;BME280;26984;59.928;30.306;2023-04-20T05:49:20;102716.78;;;9.36;57.21
41250;BME280;26984;59.928;30.306;2023-04-20T05:51:49;102710.75;;;9.42;58.98
41250;BME280;26984;59.928;30.306;2023-04-20T05:54:17;102716.00;;;9.44;58.69
41250;BME280;26984;59.928;30.306;2023-04-20T05:56:44;102714.25;;;9.34;57.30
41250;BME280;26984;59.928;30.306;2023-04-20T05:59:12;102712.28;;;9.19;57.90
41250;BME280;26984;59.928;30.306;2023-04-20T06:01:39;102711.00;;;9.05;59.65
41250;BME280;26984;59.928;30.306;2023-04-20T06:04:07;102705.09;;;9.01;60.58
41250;BME280;26984;59.928;30.306;2023-04-20T06:06:35;102711.25;;;8.94;61.20
41250;BME280;26984;59.928;30.306;2023-04-20T06:09:04;102705.94;;;8.84;62.97
41250;BME280;26984;59.928;30.306;2023-04-20T06:11:31;102700.72;;;8.82;62.32
41250;BME280;26984;59.928;30.306;2023-04-20T06:13:59;102704.63;;;8.70;63.72
41250;BME280;26984;59.928;30.306;2023-04-20T06:16:27;102701.47;;;8.75;64.06
41250;BME280;26984;59.928;30.306;2023-04-20T06:18:54;102706.00;;;8.74;65.67
41250;BME280;26984;59.928;30.306;2023-04-20T06:21:22;102701.81;;;8.72;65.53
41250;BME280;26984;59.928;30.306;2023-04-20T06:23:52;102699.72;;;8.83;65.79
41250;BME280;26984;59.928;30.306;2023-04-20T06:26:21;102699.25;;;9.06;65.45
41250;BME280;26984;59.928;30.306;2023-04-20T06:28:48;102699.16;;;9.16;63.97
41250;BME280;26984;59.928;30.306;2023-04-20T06:31:17;102696.41;;;9.33;60.85
41250;BME280;26984;59.928;30.306;2023-04-20T06:33:45;102695.81;;;9.40;60.47
41250;BME280;26984;59.928;30.306;2023-04-20T06:36:12;102692.00;;;9.50;60.35
41250;BME280;26984;59.928;30.306;2023-04-20T06:38:40;102693.94;;;9.66;60.42
41250;BME280;26984;59.928;30.306;2023-04-20T06:41:07;102682.16;;;9.67;60.97
41250;BME280;26984;59.928;30.306;2023-04-20T06:43:36;102679.13;;;9.70;60.19
41250;BME280;26984;59.928;30.306;2023-04-20T06:46:04;102680.38;;;9.84;58.83
41250;BME280;26984;59.928;30.306;2023-04-20T06:48:31;102682.75;;;9.87;56.77
41250;BME280;26984;59.928;30.306;2023-04-20T06:50:59;102682.44;;;9.90;56.40
41250;BME280;26984;59.928;30.306;2023-04-20T06:53:26;102678.19;;;9.79;55.61
41250;BME280;26984;59.928;30.306;2023-04-20T06:55:54;102679.31;;;9.69;56.17
41250;BME280;26984;59.928;30.306;2023-04-20T06:58:22;102683.34;;;9.65;55.60
41250;BME280;26984;59.928;30.306;2023-04-20T07:00:52;102673.03;;;9.60;54.99
41250;BME280;26984;59.928;30.306;2023-04-20T07:03:19;102675.16;;;9.48;54.59
41250;BME280;26984;59.928;30.306;2023-04-20T07:05:47;102665.97;;;9.59;54.40
41250;BME280;26984;59.928;30.306;2023-04-20T07:08:14;102660.44;;;9.61;51.55
41250;BME280;26984;59.928;30.306;2023-04-20T07:10:42;102660.78;;;9.66;51.58
41250;BME280;26984;59.928;30.306;2023-04-20T07:13:09;102655.63;;;9.72;49.90
41250;BME280;26984;59.928;30.306;2023-04-20T07:15:37;102661.94;;;9.63;50.14
41250;BME280;26984;59.928;30.306;2023-04-20T07:18:06;102661.34;;;9.43;49.81
41250;BME280;26984;59.928;30.306;2023-04-20T07:20:33;102659.47;;;9.18;50.51
41250;BME280;26984;59.928;30.306;2023-04-20T07:23:00;102666.91;;;8.98;50.96
41250;BME280;26984;59.928;30.306;2023-04-20T07:25:28;102662.56;;;8.97;52.19
41250;BME280;26984;59.928;30.306;2023-04-20T07:27:56;102654.84;;;9.02;53.32
41250;BME280;26984;59.928;30.306;2023-04-20T07:30:23;102656.25;;;9.14;53.90
41250;BME280;26984;59.928;30.306;2023-04-20T07:32:51;102661.50;;;9.42;54.12
41250;BME280;26984;59.928;30.306;2023-04-20T07:35:20;102654.97;;;9.44;53.52
41250;BME280;26984;59.928;30.306;2023-04-20T07:37:47;102662.13;;;9.35;53.54
41250;BME280;26984;59.928;30.306;2023-04-20T07:40:15;102658.50;;;9.45;55.16
41250;BME280;26984;59.928;30.306;2023-04-20T07:42:42;102655.31;;;9.49;53.71
41250;BME280;26984;59.928;30.306;2023-04-20T07:45:11;102646.00;;;9.70;52.25
41250;BME280;26984;59.928;30.306;2023-04-20T07:47:38;102652.53;;;9.67;51.69
41250;BME280;26984;59.928;30.306;2023-04-20T07:50:09;102643.91;;;9.55;52.09
41250;BME280;26984;59.928;30.306;2023-04-20T07:52:37;102643.56;;;9.50;53.23
41250;BME280;26984;59.928;30.306;2023-04-20T07:55:05;102646.31;;;9.32;54.20
41250;BME280;26984;59.928;30.306;2023-04-20T07:57:36;102637.78;;;9.11;53.04
41250;BME280;26984;59.928;30.306;2023-04-20T08:00:04;102629.81;;;9.01;52.21
41250;BME280;26984;59.928;30.306;2023-04-20T08:02:38;102637.81;;;8.93;52.09
41250;BME280;26984;59.928;30.306;2023-04-20T08:05:06;102627.66;;;9.05;50.62
41250;BME280;26984;59.928;30.306;2023-04-20T08:07:34;102632.72;;;9.08;49.98
41250;BME280;26984;59.928;30.306;2023-04-20T08:10:04;102629.53;;;9.13;49.91
41250;BME280;26984;59.928;30.306;2023-04-20T08:12:32;102624.53;;;9.18;49.67
41250;BME280;26984;59.928;30.306;2023-04-20T08:14:59;102627.63;;;9.31;48.58
41250;BME280;26984;59.928;30.306;2023-04-20T08:17:30;102622.66;;;9.36;48.68
41250;BME280;26984;59.928;30.306;2023-04-20T08:19:58;102624.03;;;9.48;49.26
41250;BME280;26984;59.928;30.306;2023-04-20T08:22:26;102615.56;;;9.69;48.71
41250;BME280;26984;59.928;30.306;2023-04-20T08:24:55;102621.03;;;9.94;46.75
41250;BME280;26984;59.928;30.306;2023-04-20T08:27:24;102612.00;;;10.19;46.30
41250;BME280;26984;59.928;30.306;2023-04-20T08:29:54;102611.06;;;10.37;45.61
41250;BME280;26984;59.928;30.306;2023-04-20T08:32:22;102611.59;;;10.57;44.10
41250;BME280;26984;59.928;30.306;2023-04-20T08:35:00;102609.72;;;10.65;43.86
41250;BME280;26984;59.928;30.306;2023-04-20T08:37:28;102608.22;;;10.71;44.03
41250;BME280;26984;59.928;30.306;2023-04-20T08:39:55;102606.19;;;10.73;42.95
41250;BME280;26984;59.928;30.306;2023-04-20T08:42:24;102612.09;;;10.68;43.00
41250;BME280;26984;59.928;30.306;2023-04-20T08:44:52;102608.38;;;10.69;43.30
41250;BME280;26984;59.928;30.306;2023-04-20T08:47:19;102609.56;;;10.75;42.92
41250;BME280;26984;59.928;30.306;2023-04-20T08:49:47;102615.94;;;10.90;42.26
41250;BME280;26984;59.928;30.306;2023-04-20T08:52:17;102603.16;;;10.92;42.46
41250;BME280;26984;59.928;30.306;2023-04-20T08:54:45;102605.47;;;11.03;42.22
41250;BME280;26984;59.928;30.306;2023-04-20T08:57:12;102601.09;;;11.11;42.00
41250;BME280;26984;59.928;30.306;2023-04-20T08:59:42;102593.28;;;11.32;41.68
41250;BME280;26984;59.928;30.306;2023-04-20T09:02:09;102590.53;;;11.40;41.29
41250;BME280;26984;59.928;30.306;2023-04-20T09:04:38;102585.75;;;11.59;40.78
41250;BME280;26984;59.928;30.306;2023-04-20T09:07:06;102584.22;;;11.64;40.63
41250;BME280;26984;59.928;30.306;2023-04-20T09:09:34;102583.53;;;11.62;40.68
41250;BME280;26984;59.928;30.306;2023-04-20T09:12:04;102580.88;;;11.54;40.75
41250;BME280;26984;59.928;30.306;2023-04-20T09:14:42;102578.91;;;11.40;40.80
41250;BME280;26984;59.928;30.306;2023-04-20T09:17:10;102574.69;;;11.37;40.13
41250;BME280;26984;59.928;30.306;2023-04-20T09:19:39;102571.19;;;11.20;40.67
41250;BME280;26984;59.928;30.306;2023-04-20T09:22:07;102576.75;;;11.27;40.28
41250;BME280;26984;59.928;30.306;2023-04-20T09:24:35;102576.75;;;11.27;40.17
41250;BME280;26984;59.928;30.306;2023-04-20T09:27:13;102572.19;;;11.36;40.38
41250;BME280;26984;59.928;30.306;2023-04-20T09:29:42;102581.91;;;11.45;39.78
41250;BME280;26984;59.928;30.306;2023-04-20T09:32:19;102560.81;;;11.48;39.94
41250;BME280;26984;59.928;30.306;2023-04-20T09:34:46;102565.88;;;11.91;39.40
41250;BME280;26984;59.928;30.306;2023-04-20T09:37:14;102551.03;;;11.87;39.14
41250;BME280;26984;59.928;30.306;2023-04-20T09:39:43;102556.47;;;11.79;39.16
41250;BME280;26984;59.928;30.306;2023-04-20T09:42:11;102552.72;;;11.48;40.21
41250;BME280;26984;59.928;30.306;2023-04-20T09:44:39;102547.66;;;11.54;40.42
41250;BME280;26984;59.928;30.306;2023-04-20T09:47:16;102542.59;;;11.50;41.12
41250;BME280;26984;59.928;30.306;2023-04-20T09:49:44;102523.97;;;11.64;40.85
41250;BME280;26984;59.928;30.306;2023-04-20T09:52:15;102534.25;;;12.00;40.38
41250;BME280;26984;59.928;30.306;2023-04-20T09:54:43;102533.00;;;12.10;41.05
41250;BME280;26984;59.928;30.306;2023-04-20T09:57:11;102525.97;;;12.01;40.86
41250;BME280;26984;59.928;30.306;2023-04-20T09:59:40;102532.97;;;11.87;40.88
41250;BME280;26984;59.928;30.306;2023-04-20T10:02:11;102534.53;;;12.05;39.44
41250;BME280;26984;59.928;30.306;2023-04-20T10:04:49;102527.28;;;12.28;38.45
41250;BME280;26984;59.928;30.306;2023-04-20T10:07:22;102524.63;;;12.43;38.41
41250;BME280;26984;59.928;30.306;2023-04-20T10:10:00;102513.22;;;12.33;37.24
41250;BME280;26984;59.928;30.306;2023-04-20T10:12:28;102518.44;;;12.34;37.66
41250;BME280;26984;59.928;30.306;2023-04-20T10:14:56;102510.16;;;12.36;37.24
41250;BME280;26984;59.928;30.306;2023-04-20T10:17:30;102504.50;;;12.22;36.39
41250;BME280;26984;59.928;30.306;2023-04-20T10:19:58;102509.16;;;12.14;36.66
41250;BME280;26984;59.928;30.306;2023-04-20T10:22:27;102509.16;;;12.14;36.63
41250;BME280;26984;59.928;30.306;2023-04-20T10:24:58;102511.81;;;12.37;36.07
41250;BME280;26984;59.928;30.306;2023-04-20T10:27:26;102507.81;;;12.33;36.63
41250;BME280;26984;59.928;30.306;2023-04-20T10:29:54;102495.59;;;12.37;36.57
41250;BME280;26984;59.928;30.306;2023-04-20T10:32:22;102498.06;;;12.46;36.35
41250;BME280;26984;59.928;30.306;2023-04-20T10:35:01;102502.47;;;12.62;36.28
41250;BME280;26984;59.928;30.306;2023-04-20T10:37:29;102493.13;;;12.50;36.47
41250;BME280;26984;59.928;30.306;2023-04-20T10:39:57;102498.81;;;12.55;36.45
41250;BME280;26984;59.928;30.306;2023-04-20T10:42:25;102503.72;;;12.37;36.35
41250;BME280;26984;59.928;30.306;2023-04-20T10:44:54;102487.81;;;12.19;37.18
41250;BME280;26984;59.928;30.306;2023-04-20T10:47:25;102506.63;;;12.12;37.82
41250;BME280;26984;59.928;30.306;2023-04-20T10:49:53;102472.88;;;12.08;37.75
41250;BME280;26984;59.928;30.306;2023-04-20T10:52:32;102483.63;;;12.16;37.95
41250;BME280;26984;59.928;30.306;2023-04-20T10:55:01;102489.44;;;12.28;37.91
41250;BME280;26984;59.928;30.306;2023-04-20T10:57:29;102485.91;;;12.05;38.57
41250;BME280;26984;59.928;30.306;2023-04-20T10:59:56;102471.56;;;12.04;38.89
41250;BME280;26984;59.928;30.306;2023-04-20T11:02:23;102466.69;;;12.22;38.80
41250;BME280;26984;59.928;30.306;2023-04-20T11:04:52;102461.25;;;12.08;38.64
41250;BME280;26984;59.928;30.306;2023-04-20T11:07:25;102465.88;;;11.99;38.47
41250;BME280;26984;59.928;30.306;2023-04-20T11:09:54;102466.59;;;11.93;38.85
41250;BME280;26984;59.928;30.306;2023-04-20T11:12:22;102477.47;;;11.85;38.91
41250;BME280;26984;59.928;30.306;2023-04-20T11:14:50;102455.59;;;11.94;38.32
41250;BME280;26984;59.928;30.306;2023-04-20T11:17:20;102466.16;;;12.04;38.51
41250;BME280;26984;59.928;30.306;2023-04-20T11:20:11;102447.91;;;11.83;38.64
41250;BME280;26984;59.928;30.306;2023-04-20T11:22:40;102471.25;;;11.76;38.05
41250;BME280;26984;59.928;30.306;2023-04-20T11:25:10;102454.97;;;11.61;38.47
41250;BME280;26984;59.928;30.306;2023-04-20T11:27:38;102447.56;;;11.63;38.97
41250;BME280;26984;59.928;30.306;2023-04-20T11:30:06;102449.94;;;11.58;39.30
41250;BME280;26984;59.928;30.306;2023-04-20T11:32:34;102447.56;;;11.63;39.39
41250;BME280;26984;59.928;30.306;2023-04-20T11:35:03;102439.16;;;11.81;39.36
41250;BME280;26984;59.928;30.306;2023-04-20T11:37:32;102442.56;;;11.75;39.43
41250;BME280;26984;59.928;30.306;2023-04-20T11:40:00;102431.44;;;11.70;39.47
41250;BME280;26984;59.928;30.306;2023-04-20T11:42:31;102442.78;;;11.65;39.49
41250;BME280;26984;59.928;30.306;2023-04-20T11:44:59;102432.97;;;11.49;39.49
41250;BME280;26984;59.928;30.306;2023-04-20T11:47:26;102439.53;;;11.16;40.23
41250;BME280;26984;59.928;30.306;2023-04-20T11:49:54;102435.34;;;11.13;40.10
41250;BME280;26984;59.928;30.306;2023-04-20T11:52:21;102438.28;;;10.95;40.40
41250;BME280;26984;59.928;30.306;2023-04-20T11:54:49;102427.53;;;10.87;40.05
41250;BME280;26984;59.928;30.306;2023-04-20T11:57:16;102430.81;;;10.74;40.33
41250;BME280;26984;59.928;30.306;2023-04-20T11:59:45;102427.41;;;10.72;40.84
41250;BME280;26984;59.928;30.306;2023-04-20T12:02:14;102432.13;;;10.70;41.32
41250;BME280;26984;59.928;30.306;2023-04-20T12:04:41;102433.00;;;10.63;41.29
41250;BME280;26984;59.928;30.306;2023-04-20T12:07:09;102419.25;;;10.49;41.08
41250;BME280;26984;59.928;30.306;2023-04-20T12:09:36;102435.09;;;10.36;42.88
41250;BME280;26984;59.928;30.306;2023-04-20T12:12:05;102426.16;;;10.19;43.39
41250;BME280;26984;59.928;30.306;2023-04-20T12:14:33;102409.50;;;9.91;43.58
41250;BME280;26984;59.928;30.306;2023-04-20T12:17:02;102406.84;;;9.75;44.91
41250;BME280;26984;59.928;30.306;2023-04-20T12:19:30;102405.59;;;9.37;47.05
41250;BME280;26984;59.928;30.306;2023-04-20T12:21:58;102414.78;;;9.18;47.43
41250;BME280;26984;59.928;30.306;2023-04-20T12:24:25;102407.63;;;8.92;50.40
41250;BME280;26984;59.928;30.306;2023-04-20T12:26:53;102400.59;;;8.91;52.23
41250;BME280;26984;59.928;30.306;2023-04-20T12:29:20;102406.91;;;8.82;52.92
41250;BME280;26984;59.928;30.306;2023-04-20T12:31:48;102401.75;;;8.88;51.83
41250;BME280;26984;59.928;30.306;2023-04-20T12:34:17;102406.53;;;8.69;53.72
41250;BME280;26984;59.928;30.306;2023-04-20T12:36:44;102398.00;;;8.81;53.46
41250;BME280;26984;59.928;30.306;2023-04-20T12:39:12;102403.16;;;8.67;54.50
41250;BME280;26984;59.928;30.306;2023-04-20T12:41:40;102396.09;;;8.57;55.86
41250;BME280;26984;59.928;30.306;2023-04-20T12:44:07;102377.56;;;8.28;58.03
41250;BME280;26984;59.928;30.306;2023-04-20T12:46:36;102392.22;;;8.08;59.50
41250;BME280;26984;59.928;30.306;2023-04-20T12:49:03;102396.16;;;7.60;64.06
41250;BME280;26984;59.928;30.306;2023-04-20T12:51:32;102391.81;;;7.41;72.27
41250;BME280;26984;59.928;30.306;2023-04-20T12:53:59;102377.94;;;7.46;70.29
41250;BME280;26984;59.928;30.306;2023-04-20T12:56:27;102376.56;;;7.59;69.47